Date,TemperatureHighF,TemperatureAvgF,TemperatureLowF,DewpointHighF,DewpointAvgF,DewpointLowF,HumidityHigh,HumidityAvg,HumidityLow,PressureMaxIn,PressureMinIn,WindSpeedMaxMPH,WindSpeedAvgMPH,GustSpeedMaxMPH,PrecipitationSumIn
2013-1-1,32,20,10,17,7,1,86,61,33,30.42,30.25,13,-30,14,0.00
2013-1-2,33,22,14,11,7,4,68,53,32,30.50,30.32,18,-138,20,0.00
2013-1-3,39,23,5,10,3,-5,83,46,17,30.53,30.39,9,-76,9,0.00
2013-1-4,50,30,16,16,8,2,60,44,18,30.40,30.17,9,-14,11,0.00
2013-1-5,41,28,17,16,11,7,69,52,32,30.42,30.18,18,-13,18,0.00
2013-1-6,50,30,14,16,9,-2,72,46,12,30.43,30.06,7,-15,8,0.00
2013-1-7,54,39,27,15,9,2,53,30,12,30.08,29.83,12,-23,15,0.00
2013-1-8,53,43,27,20,15,4,57,32,23,30.19,29.81,25,4,31,0.00
2013-1-9,60,37,23,21,16,13,69,46,17,30.34,30.03,14,-10,14,0.00
2013-1-10,45,34,24,21,16,9,62,48,28,30.03,29.52,18,-22,19,0.00
2013-1-11,44,29,13,25,15,2,95,61,23,29.86,29.28,24,-31,27,0.00
2013-1-12,16,8,2,8,2,-2,95,77,51,30.37,29.86,15,-26,17,0.00
2013-1-13,17,8,0,5,0,-4,83,71,55,30.49,30.36,14,-91,14,0.00
2013-1-14,16,8,1,4,-1,-4,86,70,55,30.53,30.40,10,-60,14,0.00
2013-1-15,32,17,-1,12,3,-7,82,57,34,30.52,30.40,8,-85,10,0.00
2013-1-16,53,36,20,22,17,11,71,49,27,30.43,30.28,11,-11,12,0.00
2013-1-17,52,35,22,20,16,10,77,49,23,30.52,30.28,9,-8,11,0.00
2013-1-18,58,43,25,14,6,1,50,24,11,30.29,30.04,25,5,31,0.00
2013-1-19,61,47,34,12,4,-6,38,17,8,30.18,30.04,30,-66,40,0.00
2013-1-20,48,36,24,16,12,4,68,38,18,30.29,30.05,24,-72,30,0.00
2013-1-21,56,39,14,18,8,-7,83,38,9,30.31,30.10,27,-70,30,0.00
2013-1-22,63,54,35,1,-14,-34,17,6,2,30.11,29.93,26,-30,31,0.00
2013-1-23,35,32,29,-2,-4,-6,24,22,18,30.04,30.01,7,1,9,0.00
2013-1-27,42,38,35,30,25,20,67,60,52,29.70,29.67,7,2,7,0.01
2013-1-28,56,37,27,31,23,15,92,62,27,29.77,29.46,27,-9,30,0.00
2013-1-29,33,25,19,24,17,11,91,73,45,30.11,29.75,22,-73,23,0.07
2013-1-30,39,29,10,17,11,3,82,49,36,30.12,29.98,34,-101,37,0.02
2013-1-31,47,39,27,25,17,14,68,42,26,30.15,29.98,23,-27,33,0.09
2013-2-1,49,37,23,26,19,14,81,52,27,30.25,30.06,27,5,28,0.00
2013-2-2,59,36,23,21,16,8,71,47,14,30.35,30.23,19,-19,20,0.00
2013-2-3,54,40,24,20,12,3,65,37,13,30.27,29.90,17,3,20,0.00
2013-2-4,53,41,25,16,10,3,57,31,14,29.99,29.83,30,6,34,0.00
2013-2-5,60,46,34,20,17,14,51,32,19,30.01,29.76,22,2,22,0.00
2013-2-6,55,41,30,33,25,19,90,55,29,30.07,29.75,13,2,24,0.05
2013-2-7,48,36,24,32,22,12,91,62,31,30.18,30.06,12,-60,15,0.00
2013-2-8,52,34,23,18,13,8,61,43,19,30.06,29.74,12,2,13,0.00
2013-2-9,37,30,25,29,20,13,88,68,50,29.75,29.58,19,-21,21,0.01
2013-2-10,36,27,21,22,16,9,88,65,36,30.19,29.67,18,-40,18,0.02
2013-2-11,30,23,17,18,15,12,92,73,57,30.22,30.12,13,-56,15,0.01
2013-2-12,41,28,10,17,5,-5,83,45,14,30.26,30.16,14,-28,15,0.00
2013-2-13,47,35,20,16,12,7,62,40,24,30.17,30.00,34,-42,38,0.00
2013-2-14,35,28,21,23,18,13,92,70,39,30.40,30.05,30,-24,34,0.00
2013-2-15,42,26,13,22,15,9,87,65,30,30.49,30.37,15,-53,21,0.03
2013-2-16,56,44,22,18,14,9,76,31,19,30.37,29.93,25,-12,27,0.00
2013-2-17,63,44,28,17,5,-14,54,26,5,29.93,29.48,23,-25,28,0.00
2013-2-18,42,31,23,22,11,0,82,48,18,30.18,29.71,29,-31,32,0.00
2013-2-19,42,29,18,14,10,5,66,45,25,30.18,29.88,12,-40,14,0.00
2013-2-20,27,25,22,15,14,14,70,65,57,29.91,29.87,9,-87,11,0.00
2013-2-22,36,29,22,21,17,9,86,61,52,30.14,30.03,9,-94,11,0.06
2013-2-23,47,31,17,27,17,7,88,57,31,30.03,29.70,17,-49,21,0.02
2013-2-24,29,26,23,26,24,20,93,92,88,30.25,29.78,28,-142,36,0.01
2013-2-25,39,24,8,27,15,5,91,71,31,30.26,29.99,9,-55,12,0.11
2013-2-26,34,26,16,26,18,10,81,72,58,30.29,29.96,24,-5,30,0.02
2013-2-27,38,28,14,16,10,2,76,49,29,30.39,30.28,15,-48,19,0.00
2013-2-28,47,32,14,16,11,3,72,43,22,30.41,30.28,28,-43,30,0.00
2013-3-1,48,38,26,24,20,14,66,49,34,30.37,30.28,17,-66,26,0.00
2013-3-2,62,47,30,29,24,21,72,44,23,30.35,29.98,15,3,18,0.00
2013-3-3,64,50,38,30,24,19,62,38,20,29.98,29.53,23,4,29,0.00
2013-3-4,46,32,19,28,23,12,92,72,43,30.32,29.55,21,4,25,0.01
2013-3-5,40,26,12,22,16,7,84,65,44,30.46,30.30,12,-34,14,0.01
2013-3-6,59,38,20,28,21,13,87,56,17,30.30,29.88,13,-8,14,0.01
2013-3-7,64,47,31,30,24,18,62,43,19,29.96,29.81,22,-10,23,0.00
2013-3-8,49,39,32,32,29,25,83,68,45,29.91,29.67,10,-8,12,0.00
2013-3-9,35,31,22,34,28,17,99,89,78,30.19,29.64,28,-8,31,0.10
2013-3-10,48,32,14,24,17,9,90,59,28,30.30,30.13,10,-90,11,0.13
2013-3-11,53,42,31,31,22,14,95,50,29,30.13,29.87,25,-104,28,0.04
2013-3-12,40,31,25,29,26,22,92,83,61,30.37,30.12,9,-8,9,0.25
2013-3-13,63,47,28,37,28,22,89,52,21,30.36,30.18,23,-35,26,0.00
2013-3-14,72,57,46,32,23,9,43,28,9,30.19,29.98,20,4,24,0.00
2013-3-15,74,62,48,28,24,19,43,24,13,29.98,29.65,28,-45,30,0.00
2013-3-16,56,47,40,35,32,25,75,55,35,29.80,29.67,24,5,26,0.00
2013-3-17,60,46,34,30,24,13,66,45,19,29.77,29.45,30,8,43,0.00
2013-3-18,51,41,30,18,13,8,44,32,19,29.93,29.77,28,8,34,0.00
2013-3-19,56,43,30,17,5,-13,57,24,6,30.33,29.89,28,8,34,0.00
2013-3-20,54,37,21,25,19,15,78,52,23,30.33,29.77,11,2,12,0.00
2013-3-21,60,44,35,31,21,10,66,43,21,29.77,29.44,30,-6,33,0.00
2013-3-22,48,35,27,28,21,12,100,60,32,29.96,29.62,29,-56,32,0.00
2013-3-23,27,19,12,25,17,9,92,89,86,30.41,29.96,28,-22,31,0.00
2013-3-24,28,19,2,21,12,-1,90,77,60,30.48,30.35,13,-4,15,0.20
2013-3-25,37,24,13,18,14,9,92,65,37,30.48,30.36,12,-38,12,0.02
2013-3-26,56,34,17,31,20,11,79,58,25,30.36,29.99,12,-87,16,0.00
2013-3-27,55,42,29,37,30,22,80,63,43,30.11,30.00,14,-35,14,0.00
2013-3-28,65,48,32,37,32,26,88,59,23,30.08,29.99,21,-24,23,0.00
2013-3-29,67,52,37,35,30,27,76,46,22,30.05,29.92,21,5,30,0.00
2013-3-30,68,51,39,38,30,20,81,49,17,30.11,29.87,26,7,32,0.00
2013-3-31,71,52,33,36,26,9,87,46,9,30.10,29.83,16,-9,21,0.00
2013-4-1,51,42,32,35,30,24,84,64,42,30.06,29.88,23,-2,27,0.00
2013-4-2,38,38,37,34,33,32,86,83,80,30.06,30.04,10,3,11,0.00
2013-4-12,39,38,36,33,32,30,80,78,74,29.94,29.91,6,2,7,0.00
2013-4-13,71,52,31,36,27,17,90,47,16,29.91,29.31,19,-16,27,0.00
2013-4-14,51,43,36,38,22,12,85,48,22,29.71,29.38,28,8,33,0.10
2013-4-15,39,29,23,28,23,14,92,83,36,30.14,29.68,17,-17,20,0.01
2013-4-16,38,28,23,33,25,20,92,88,78,30.14,29.96,21,-94,25,0.18
2013-4-17,33,26,20,30,24,18,93,91,87,30.31,30.00,24,-145,31,0.01
2013-4-18,39,27,15,20,15,11,91,64,40,30.33,30.26,13,-5,16,0.08
2013-4-19,54,43,29,26,19,12,53,39,27,30.30,29.94,24,6,30,0.00
2013-4-20,60,48,36,37,31,24,73,52,33,29.94,29.81,16,-49,17,0.00
2013-4-21,63,52,42,32,26,20,65,38,20,29.98,29.83,20,-47,23,0.00
2013-4-22,55,35,23,38,27,21,92,74,43,30.35,29.77,32,-8,35,0.02
2013-4-23,42,27,21,28,20,16,92,77,47,30.41,30.28,11,2,11,0.09
2013-4-24,55,39,22,25,19,12,78,47,20,30.33,30.19,16,-55,20,0.20
2013-4-25,65,48,31,32,22,15,60,38,17,30.20,29.84,14,3,17,0.00
2013-4-26,68,55,40,27,23,17,54,31,17,30.10,29.93,14,5,19,0.00
2013-4-27,75,62,43,30,22,14,47,24,11,30.08,29.83,15,5,18,0.00
2013-4-28,80,67,52,34,26,19,36,22,13,29.84,29.57,24,6,26,0.00
2013-4-29,81,68,48,38,30,22,63,27,13,29.68,29.35,20,4,23,0.00
2013-4-30,62,51,37,41,34,25,89,55,24,29.90,29.37,29,6,31,0.03
2013-5-1,37,32,26,34,29,23,100,91,86,30.69,29.91,18,-55,22,0.25
2013-5-2,45,39,34,25,22,18,67,50,34,30.66,30.50,9,2,12,0.08
2013-5-3,60,46,27,32,26,22,85,51,25,30.50,30.07,14,-35,16,0.00
2013-5-4,59,49,37,35,30,24,66,48,33,30.14,30.01,16,-18,19,0.00
2013-5-5,56,47,37,34,28,24,61,48,35,30.14,30.01,15,-9,17,0.00
2013-5-6,66,57,42,39,35,32,69,45,33,30.00,29.79,13,-24,15,0.00
2013-5-7,69,56,46,46,39,34,83,55,29,29.85,29.69,20,3,23,0.05
2013-5-8,61,49,44,48,42,36,91,77,47,30.01,29.78,18,-10,23,0.75
2013-5-9,58,49,45,46,43,37,92,79,53,30.12,29.99,30,5,33,0.07
2013-5-10,66,53,38,47,40,34,89,62,33,30.19,30.09,27,3,32,0.03
2013-5-11,67,57,46,45,39,35,71,53,33,30.27,30.07,21,4,24,0.03
2013-5-12,79,66,50,44,38,34,64,38,22,30.09,29.87,16,4,18,0.00
2013-5-13,83,71,54,51,41,34,63,35,20,29.91,29.73,13,3,17,0.00
2013-5-14,86,72,60,50,40,34,56,32,16,29.73,29.60,26,6,26,0.00
2013-5-15,81,65,57,52,44,38,75,49,25,29.73,29.57,26,4,26,0.06
2013-5-16,81,66,50,52,44,37,83,49,21,29.68,29.54,15,3,16,0.00
2013-5-17,87,71,52,48,34,18,68,32,8,29.63,29.43,16,3,25,0.00
2013-5-18,77,65,52,47,35,22,54,34,17,29.61,29.46,17,3,22,0.00
2013-5-19,71,60,51,40,34,27,60,40,20,29.65,29.52,21,4,26,0.02
2013-5-20,65,53,47,49,42,32,86,68,45,29.89,29.64,27,3,29,0.15
2013-5-21,71,56,40,43,37,30,95,53,23,29.94,29.72,20,4,26,0.00
2013-5-22,77,60,44,52,40,34,85,52,25,29.86,29.65,16,3,24,0.05
2013-5-23,71,58,47,53,48,44,94,70,44,29.89,29.73,13,3,15,0.00
2013-5-24,83,66,46,54,45,36,90,53,20,29.80,29.64,18,3,23,0.00
2013-5-25,88,72,54,53,39,11,76,36,6,29.73,29.52,11,-23,15,0.00
2013-5-26,86,71,58,48,34,23,49,27,11,29.62,29.53,19,4,23,0.00
2013-5-27,82,70,58,44,32,23,48,26,13,29.58,29.42,17,4,24,0.00
2013-5-28,81,66,51,51,38,24,64,39,16,29.56,29.29,22,3,25,0.00
2013-5-29,65,57,50,54,45,32,92,67,38,29.55,29.34,22,4,26,0.43
2013-5-30,70,60,52,38,32,27,49,36,21,29.69,29.51,28,-8,34,0.00
2013-5-31,72,62,49,31,23,16,40,24,12,29.83,29.65,28,8,39,0.00
2013-6-1,71,58,42,45,38,23,81,49,26,30.05,29.83,20,-9,20,0.00
2013-6-2,86,65,43,44,37,32,74,40,16,30.04,29.58,11,2,13,0.00
2013-6-3,92,75,56,47,33,26,44,23,10,29.61,29.39,28,5,30,0.00
2013-6-4,73,62,52,55,46,25,81,57,23,29.99,29.60,33,-11,40,0.00
2013-6-5,59,53,47,50,47,45,92,81,69,30.06,30.00,8,-22,11,0.01
2013-6-6,80,64,42,53,44,38,89,52,24,30.05,29.83,12,-26,13,0.00
2013-6-7,82,66,50,53,43,39,71,46,23,29.88,29.55,20,2,26,0.00
2013-6-8,80,68,56,53,45,39,60,44,29,29.78,29.50,24,4,28,0.00
2013-6-9,92,72,48,49,42,35,79,39,16,29.81,29.62,14,-27,15,0.00
2013-6-10,98,82,63,54,40,32,49,25,11,29.64,29.45,13,3,23,0.00
2013-6-11,99,82,59,51,34,15,52,22,5,29.60,29.36,25,5,25,0.00
2013-6-12,94,78,61,54,36,26,56,24,13,29.75,29.59,25,3,25,0.00
2013-6-13,84,71,56,61,54,40,89,57,26,29.78,29.57,20,-11,25,0.00
2013-6-14,91,78,63,49,42,28,55,29,12,29.66,29.49,24,6,28,0.00
2013-6-15,82,69,55,54,49,46,73,50,34,29.78,29.59,11,3,18,0.00
2013-6-16,87,69,57,56,47,35,80,48,18,29.87,29.75,20,3,23,0.05
2013-6-17,81,68,52,54,46,39,73,48,24,29.92,29.78,17,2,20,0.00
2013-6-18,86,69,54,57,51,43,87,57,25,29.88,29.60,18,-8,21,0.00
2013-6-19,96,73,52,53,43,22,85,44,8,29.71,29.34,20,2,21,0.00
2013-6-20,92,74,58,47,35,18,62,27,11,29.60,29.45,16,3,16,0.00
2013-6-21,97,76,58,57,41,24,64,34,10,29.60,29.43,40,4,42,0.00
2013-6-22,86,71,56,54,48,40,72,47,22,29.63,29.43,21,2,23,0.00
2013-6-23,87,68,51,54,48,44,83,54,24,29.77,29.54,16,3,18,0.24
2013-6-24,89,73,57,55,45,30,79,43,13,29.67,29.46,16,2,19,0.00
2013-6-25,91,77,61,48,38,27,45,25,15,29.68,29.51,17,4,20,0.00
2013-6-26,99,81,61,49,42,37,53,27,13,29.75,29.63,15,3,16,0.00
2013-6-27,99,83,66,54,44,38,52,27,14,29.84,29.70,15,3,20,0.00
2013-6-28,95,78,62,60,53,43,77,43,27,29.93,29.71,28,4,33,0.06
2013-6-29,85,72,61,61,55,48,78,57,32,29.88,29.78,18,2,23,0.00
2013-6-30,79,69,62,60,56,52,77,64,47,29.92,29.84,15,2,15,0.00
2013-7-1,83,69,56,59,54,49,86,60,38,30.03,29.92,36,3,40,0.09
2013-7-2,86,70,54,59,52,45,94,60,29,30.00,29.84,15,2,23,0.01
2013-7-3,90,73,54,54,49,46,80,46,22,29.86,29.60,13,2,22,0.00
2013-7-4,94,76,58,59,49,44,70,41,21,29.68,29.57,24,3,28,0.00
2013-7-5,92,75,64,59,52,46,66,48,27,29.60,29.49,24,3,26,0.00
2013-7-6,93,76,67,65,52,46,80,46,22,29.65,29.53,18,4,24,0.26
2013-7-7,86,74,63,62,55,50,75,53,32,29.75,29.64,15,2,18,0.00
2013-7-8,96,77,65,61,52,42,72,45,18,29.75,29.65,30,4,35,0.00
2013-7-9,98,79,64,58,48,40,64,37,16,29.84,29.74,20,3,33,0.00
2013-7-10,89,76,61,62,53,45,68,47,29,29.87,29.68,11,2,15,0.00
2013-7-11,103,77,60,62,55,43,82,53,14,29.77,29.48,23,3,35,0.38
2013-7-12,92,75,66,66,58,52,84,59,26,29.73,29.55,15,3,25,0.11
2013-7-13,93,72,62,65,60,55,93,72,31,29.88,29.69,19,2,33,1.25
2013-7-14,82,70,58,65,60,56,95,74,46,29.96,29.79,16,3,17,0.00
2013-7-15,80,68,61,67,60,51,94,78,55,29.91,29.81,21,2,27,0.60
2013-7-16,85,70,54,61,53,49,90,57,32,29.94,29.86,13,2,16,0.00
2013-7-17,92,74,56,62,54,49,81,53,25,29.94,29.76,12,1,16,0.00
2013-7-18,92,76,64,62,55,50,72,51,29,29.84,29.70,23,3,26,0.00
2013-7-19,84,74,65,62,58,52,76,59,38,29.84,29.74,16,3,21,0.00
2013-7-20,93,72,58,63,55,51,79,58,27,29.76,29.60,29,2,31,0.00
2013-7-21,90,73,56,66,57,44,83,59,33,29.69,29.58,18,-14,20,0.00
2013-7-22,95,80,63,64,53,39,77,42,23,29.65,29.55,15,3,18,0.00
2013-7-23,91,76,61,59,49,33,65,40,22,29.80,29.58,13,3,18,0.00
2013-7-24,82,73,62,66,57,46,76,59,35,29.89,29.72,26,3,36,0.00
2013-7-25,79,65,58,62,56,52,91,73,42,30.04,29.77,24,3,30,0.07
2013-7-26,88,71,57,58,52,45,82,54,26,30.05,29.85,12,2,20,0.00
2013-7-27,80,67,54,61,55,48,92,67,46,29.89,29.76,16,-32,19,0.09
2013-7-28,70,63,60,63,59,56,95,88,69,29.84,29.70,10,-13,12,0.09
2013-7-29,73,63,58,63,58,52,94,84,61,29.98,29.72,9,1,15,0.04
2013-7-30,90,71,56,60,53,48,83,57,26,30.02,29.88,22,3,27,0.01
2013-7-31,91,75,60,58,53,45,76,50,21,30.03,29.82,16,2,17,0.00
2013-8-1,93,73,60,61,54,40,84,56,16,29.91,29.65,24,2,29,0.00
2013-8-2,94,77,60,58,52,46,73,45,21,29.73,29.62,14,2,18,0.00
2013-8-3,91,72,60,62,55,50,92,60,25,29.99,29.69,26,3,34,0.52
2013-8-4,89,72,58,65,55,48,80,56,29,29.93,29.80,17,3,21,0.00
2013-8-5,86,72,59,62,53,48,73,52,32,29.81,29.72,13,2,18,0.00
2013-8-6,89,71,58,58,52,46,80,54,23,29.80,29.68,21,4,30,0.07
2013-8-7,75,66,60,57,54,49,81,65,45,29.84,29.75,11,2,16,0.00
2013-8-8,76,64,57,61,56,47,92,76,51,29.97,29.79,12,2,17,0.00
2013-8-9,80,65,53,55,50,46,85,62,31,30.01,29.91,17,2,21,0.00
2013-8-10,87,68,51,56,49,44,81,54,23,30.01,29.83,25,3,35,0.14
2013-8-11,82,70,60,59,51,47,71,52,31,29.92,29.84,14,2,18,0.01
2013-8-12,82,68,56,60,53,47,90,62,33,30.03,29.84,24,3,25,0.18
2013-8-13,80,66,54,60,53,45,89,64,39,30.01,29.88,19,4,26,0.08
2013-8-14,85,67,54,58,52,47,92,61,28,30.00,29.85,14,2,17,0.02
2013-8-15,86,70,54,57,48,40,69,49,24,29.92,29.83,15,2,19,0.01
2013-8-16,93,73,54,54,46,37,75,43,15,29.91,29.79,9,2,15,0.00
2013-8-17,94,75,56,58,47,32,76,41,11,29.85,29.68,10,1,11,0.00
2013-8-18,93,75,58,61,49,39,77,43,18,29.82,29.70,13,2,20,0.00
2013-8-19,96,78,58,57,48,41,70,38,16,29.81,29.66,15,2,16,0.00
2013-8-20,98,80,60,65,46,30,67,35,10,29.70,29.58,14,2,15,0.00
2013-8-21,93,76,65,58,51,44,72,43,23,29.81,29.66,24,3,24,0.02
2013-8-22,84,70,60,65,58,54,83,68,48,29.93,29.81,14,2,17,0.12
2013-8-23,89,71,61,64,57,52,85,63,33,29.93,29.67,15,2,22,0.08
2013-8-24,86,72,58,64,55,50,77,57,32,29.83,29.72,13,2,20,0.02
2013-8-25,91,75,62,59,54,50,72,52,26,29.85,29.75,16,2,18,0.00
2013-8-26,93,76,60,61,56,52,81,54,28,29.83,29.74,20,2,24,0.00
2013-8-27,90,76,61,62,57,53,81,53,30,29.82,29.67,14,2,16,0.00
2013-8-28,94,77,61,61,55,49,78,49,23,29.78,29.69,11,1,14,0.00
2013-8-29,97,78,61,61,52,48,66,43,21,29.85,29.76,20,3,28,0.00
2013-8-30,89,75,67,60,54,48,65,50,29,29.84,29.77,19,2,29,0.02
2013-8-31,95,76,64,61,52,48,64,45,22,29.80,29.71,16,2,22,0.00
2013-9-1,79,69,60,62,58,50,92,71,49,29.90,29.79,12,1,15,0.32
2013-9-2,89,73,56,63,55,47,90,57,23,29.90,29.72,10,1,11,0.00
2013-9-3,94,78,64,59,54,50,75,45,23,29.80,29.69,18,-13,23,0.00
2013-9-4,92,76,66,62,55,51,69,49,27,29.85,29.76,8,1,10,0.00
2013-9-5,94,76,63,62,54,49,72,48,25,29.90,29.77,11,2,13,0.00
2013-9-6,97,78,61,60,52,45,67,43,18,29.83,29.67,13,2,18,0.00
2013-9-7,96,78,60,57,50,39,73,42,16,29.79,29.64,15,2,19,0.00
2013-9-8,92,74,58,57,51,48,74,48,23,29.70,29.53,12,2,20,0.00
2013-9-9,84,66,58,62,54,49,94,69,35,29.83,29.56,18,3,28,0.85
2013-9-10,65,60,58,62,58,57,98,93,82,30.02,29.78,9,2,12,0.48
2013-9-11,69,62,60,65,60,58,97,95,82,30.02,29.96,13,-22,15,0.96
2013-9-12,62,60,58,62,59,57,97,96,93,30.09,30.00,15,3,21,1.07
2013-9-13,78,63,58,66,60,56,97,88,55,30.01,29.68,8,1,15,0.47
2013-9-14,75,64,58,65,58,52,98,82,47,29.82,29.65,13,1,13,0.01
2013-9-15,61,58,55,57,55,53,96,92,81,30.12,29.81,18,3,20,0.23
2013-9-16,74,62,54,60,56,52,97,82,56,30.10,29.86,13,-26,15,0.02
2013-9-17,84,67,50,59,49,40,92,58,21,29.88,29.57,12,2,13,0.00
2013-9-18,84,70,60,60,48,41,62,46,29,29.63,29.48,23,4,32,0.00
2013-9-19,67,60,50,49,45,38,78,58,42,30.01,29.61,14,-10,15,0.00
2013-9-20,74,58,47,52,46,42,86,66,37,30.04,29.88,8,1,9,0.00
2013-9-21,82,65,48,56,45,40,83,53,24,29.89,29.58,12,-38,15,0.00
2013-9-22,80,64,53,58,48,39,89,57,35,29.58,29.32,17,2,22,0.09
2013-9-23,65,57,49,51,40,31,94,58,32,29.91,29.32,29,5,37,0.41
2013-9-24,77,58,39,46,38,30,85,52,23,30.02,29.69,8,1,11,0.00
2013-9-25,83,62,41,56,42,31,81,51,19,29.69,29.25,13,1,18,0.00
2013-9-26,69,57,44,51,44,37,86,64,38,29.58,29.35,11,-12,16,0.00
2013-9-27,52,47,40,50,45,38,94,92,80,29.96,29.56,11,3,17,0.23
2013-9-28,69,52,36,40,33,26,93,52,26,30.11,29.96,15,3,25,0.00
2013-9-29,75,59,41,42,35,28,70,43,18,30.02,29.74,12,2,13,0.00
2013-9-30,83,66,54,52,41,32,64,42,23,29.75,29.54,11,1,12,0.00
2013-10-1,74,60,46,49,42,32,73,52,35,29.87,29.68,11,-10,14,0.00
2013-10-2,76,60,44,49,42,36,86,57,24,29.82,29.69,16,2,19,0.00
2013-10-3,63,52,41,48,43,37,91,72,51,29.74,29.58,14,2,19,0.05
2013-10-4,49,38,32,46,34,24,95,85,63,30.21,29.64,23,5,27,0.38
2013-10-5,60,44,27,35,23,15,93,51,20,30.29,30.17,21,3,21,0.01
2013-10-6,68,51,33,38,30,14,79,48,25,30.23,30.12,11,1,13,0.00
2013-10-7,78,56,37,43,34,25,85,51,14,30.12,29.78,7,1,9,0.00
2013-10-8,77,60,48,47,36,30,66,44,19,29.78,29.52,12,2,17,0.00
2013-10-9,63,54,44,47,40,34,83,62,48,29.85,29.63,13,2,15,0.00
2013-10-10,59,50,43,50,44,39,93,79,65,29.84,29.42,26,2,26,0.07
2013-10-11,61,53,41,40,34,26,83,52,33,29.93,29.37,31,-7,41,0.00
2013-10-12,57,47,40,45,40,35,90,78,54,30.10,29.93,11,2,16,0.00
2013-10-13,61,48,36,47,40,33,92,77,53,30.10,29.80,10,-12,10,0.00
2013-10-14,57,46,40,45,38,32,90,75,48,30.14,29.73,20,4,29,0.06
2013-10-15,41,38,35,33,28,25,78,68,62,30.30,30.14,11,2,14,0.00
2013-10-16,54,40,27,34,28,24,90,66,39,30.25,30.03,12,1,14,0.00
2013-10-17,50,40,33,36,31,26,81,68,50,30.14,30.02,10,2,12,0.00
2013-10-18,46,37,32,38,30,27,94,79,55,30.21,30.05,13,-28,19,0.20
2013-10-19,64,50,30,32,25,22,84,41,22,30.17,29.84,16,4,22,0.00
2013-10-20,56,46,34,38,31,23,91,61,28,30.08,29.75,17,4,31,0.11
2013-10-21,59,44,29,42,30,26,94,64,29,30.23,30.08,13,-26,15,0.01
2013-10-22,64,52,36,36,31,26,75,48,30,30.15,30.02,12,-24,16,0.00
2013-10-23,65,49,36,39,33,29,77,56,30,30.14,30.03,13,1,14,0.00
2013-10-24,57,44,34,41,36,30,89,73,53,30.22,30.13,9,-13,11,0.00
2013-10-25,70,50,32,42,34,30,96,61,27,30.21,30.05,11,-45,12,0.00
2013-10-26,62,50,38,39,34,28,76,53,34,30.27,30.04,13,-13,14,0.00
2013-10-27,69,52,35,38,28,24,76,46,18,30.04,29.74,14,2,17,0.00
2013-10-28,46,37,32,35,31,26,94,80,49,30.06,29.76,19,-35,24,0.02
2013-10-29,38,35,32,35,32,31,95,91,82,30.09,29.90,7,-26,8,0.03
2013-10-30,48,38,32,42,33,23,95,85,49,30.01,29.84,16,-36,20,0.15
2013-10-31,54,46,40,26,22,17,50,39,28,29.87,29.76,33,8,38,0.00
2013-11-1,52,44,34,34,27,21,75,53,30,30.19,29.85,20,-34,23,0.00
2013-11-2,67,44,27,31,25,20,80,51,18,30.21,29.72,8,1,11,0.00
2013-11-3,71,52,37,30,21,14,70,33,12,29.73,29.42,21,-20,25,0.00
2013-11-4,43,36,29,31,22,16,87,59,35,29.99,29.72,13,4,16,0.00
2013-11-5,44,34,27,24,16,3,74,50,21,30.24,29.94,24,4,26,0.00
2013-11-6,51,41,25,20,15,2,55,35,26,30.36,30.19,24,4,31,0.00
2013-11-7,58,44,29,28,23,17,67,46,29,30.38,29.97,20,-12,24,0.00
2013-11-8,67,50,33,28,23,18,67,39,17,29.98,29.76,20,-43,29,0.00
2013-11-9,66,48,37,36,28,22,68,48,20,30.19,29.94,13,3,17,0.00
2013-11-10,66,48,31,34,26,20,82,47,19,30.22,30.11,12,-44,13,0.00
2013-11-11,68,46,32,34,26,21,92,53,17,30.61,30.10,22,-26,27,0.00
2013-11-12,60,43,30,33,29,24,90,60,31,30.61,30.37,11,2,13,0.00
2013-11-13,68,50,30,30,20,11,76,37,11,30.37,29.94,14,2,17,0.00
2013-11-14,58,49,39,35,28,20,62,45,26,29.96,29.65,20,3,24,0.00
2013-11-15,65,48,30,28,20,15,64,36,15,29.66,29.39,22,-1,24,0.00
2013-11-16,60,47,37,33,23,14,75,42,19,29.48,29.19,27,5,30,0.00
2013-11-17,57,45,35,28,20,15,72,39,21,30.03,29.48,26,-60,30,0.00
2013-11-18,66,45,25,24,17,12,69,36,13,30.13,29.98,10,-19,12,0.00
2013-11-19,61,46,32,31,22,15,54,40,21,29.98,29.68,15,-12,16,0.00
2013-11-20,59,48,30,30,26,23,81,43,27,29.95,29.64,35,-18,46,0.00
2013-11-21,29,18,14,25,14,9,90,84,77,30.84,29.96,16,-10,19,0.00
2013-11-22,34,26,17,22,17,11,92,69,44,30.82,30.70,17,-46,18,0.07
2013-11-23,35,28,25,23,20,17,83,70,56,30.79,30.45,7,-18,11,0.02
2013-11-24,41,30,22,28,23,18,87,77,39,30.45,30.09,18,-50,22,0.01
2013-11-25,40,36,29,28,24,17,83,61,39,30.36,30.15,16,3,21,0.01
2013-11-26,50,36,26,29,21,18,81,59,30,30.50,30.31,11,-26,12,0.00
2013-11-27,64,43,24,28,21,18,79,47,19,30.31,30.06,8,-39,9,0.00
2013-11-28,47,36,28,28,24,20,83,62,44,30.20,30.13,10,-58,11,0.00
2013-11-29,63,44,27,32,22,17,89,47,18,30.19,30.10,13,3,18,0.00
2013-11-30,60,43,31,24,16,13,54,36,17,30.14,30.05,12,2,14,0.00
2013-12-1,58,47,31,27,20,15,58,36,22,30.14,29.80,35,-6,39,0.00
2013-12-2,61,53,42,26,23,20,47,31,22,29.81,29.40,28,6,36,0.00
2013-12-3,56,38,13,30,19,9,92,52,28,29.76,29.30,22,-18,27,0.00
2013-12-4,12,8,0,8,4,-5,93,82,73,30.41,29.76,11,-43,12,0.00
2013-12-5,11,1,-7,6,-4,-12,92,78,69,30.57,30.39,12,-82,15,0.05
2013-12-6,9,0,-8,1,-5,-12,92,78,60,30.68,30.56,8,-121,8,0.00
2013-12-7,13,1,-6,6,-3,-10,92,80,67,30.67,30.22,10,-97,10,0.00
2013-12-8,22,9,-1,12,4,-5,85,79,62,30.38,30.12,8,-115,10,0.00
2013-12-9,28,16,0,6,-1,-6,85,53,24,30.44,30.32,32,-42,34,0.00
2013-12-10,49,32,17,19,10,-1,64,41,24,30.40,30.05,18,-75,23,0.01
2013-12-11,36,23,12,20,14,7,92,70,47,30.51,30.34,10,-86,11,0.00
2013-12-12,56,33,15,23,16,8,83,54,21,30.51,30.02,6,-79,8,0.00
2013-12-13,50,34,19,25,17,11,79,52,23,30.23,29.88,13,2,16,0.00
2013-12-14,45,34,19,22,16,12,84,51,27,30.36,30.23,15,3,19,0.00
2013-12-15,56,48,34,22,18,11,50,31,18,30.23,30.01,37,8,38,0.00
2013-12-16,64,50,36,23,15,6,44,26,10,30.16,29.99,25,5,30,0.00
2013-12-17,64,47,30,22,16,10,57,32,15,30.29,30.00,22,5,26,0.00
2013-12-18,69,55,43,19,14,11,32,20,11,30.00,29.56,17,5,22,0.00
2013-12-19,45,36,17,26,20,14,92,55,31,29.89,29.44,20,-36,25,0.00
2013-12-20,25,20,16,21,17,14,92,88,83,29.91,29.83,7,-47,9,0.00
2013-12-21,31,22,14,25,18,11,92,85,66,30.09,29.75,23,-131,27,0.00
2013-12-22,39,27,16,22,16,12,98,66,32,30.39,30.08,23,-39,38,0.02
2013-12-23,47,31,19,26,20,16,98,67,37,30.42,30.19,21,-98,28,0.55
2013-12-24,55,42,24,31,19,8,60,41,27,30.26,29.95,32,-20,41,0.00
2013-12-25,45,31,20,17,10,5,70,45,20,30.48,30.25,14,-43,14,0.00
2013-12-26,54,42,26,17,12,6,56,31,18,30.35,30.25,28,3,28,0.00
2013-12-27,60,40,26,26,20,16,68,47,22,30.32,30.05,7,-36,8,0.00
2013-12-28,59,36,21,27,22,18,90,59,23,30.28,29.83,24,-8,31,0.00
2013-12-29,37,25,15,22,16,12,91,70,40,30.34,30.06,17,-12,20,0.05
2013-12-30,47,38,28,17,15,11,59,39,25,30.30,30.12,23,-32,26,0.00
2013-12-31,57,44,29,25,20,14,57,38,25,30.12,29.87,28,6,33,0.00
2014-1-1,47,34,21,32,25,18,89,71,37,30.32,29.83,19,4,25,0.02
2014-1-2,45,30,17,27,20,14,89,71,37,30.43,30.13,12,2,16,0.04